createdAt,value
2018-01-30T00:01:43.666Z,73.60
2018-01-30T00:04:11.259Z,73.50
2018-01-30T00:06:39.600Z,73.80
2018-01-30T00:09:07.193Z,73.70
2018-01-30T00:11:35.534Z,74.00
2018-01-30T00:14:03.127Z,74.00
2018-01-30T00:16:30.697Z,73.90
2018-01-30T00:18:59.053Z,74.40
2018-01-30T00:21:26.622Z,74.40
2018-01-30T00:23:54.211Z,74.50
2018-01-30T00:26:21.768Z,74.60
2018-01-30T00:28:49.362Z,74.60
2018-01-30T00:31:16.944Z,74.90
2018-01-30T00:33:44.539Z,75.10
2018-01-30T00:36:12.112Z,75.40
2018-01-30T00:38:39.698Z,76.00
2018-01-30T00:41:07.265Z,76.10
2018-01-30T00:43:36.369Z,77.80
2018-01-30T00:46:03.937Z,77.20
2018-01-30T00:48:31.527Z,77.30
2018-01-30T00:50:59.099Z,77.20
2018-01-30T00:53:26.680Z,77.00
2018-01-30T00:55:54.241Z,76.70
2018-01-30T00:58:21.833Z,76.90
2018-01-30T01:00:49.397Z,76.90
2018-01-30T01:03:16.977Z,76.80
2018-01-30T01:05:45.306Z,77.10
2018-01-30T01:08:12.922Z,77.10
2018-01-30T01:10:40.498Z,77.00
2018-01-30T01:13:08.063Z,77.50
2018-01-30T01:15:35.650Z,77.20
2018-01-30T01:18:03.214Z,77.20
2018-01-30T01:20:30.809Z,77.10
2018-01-30T01:22:58.374Z,77.50
2018-01-30T01:25:25.978Z,77.30
2018-01-30T01:27:53.541Z,77.00
2018-01-30T01:30:21.134Z,77.50
2018-01-30T01:32:49.467Z,77.50
2018-01-30T01:35:17.056Z,77.50
2018-01-30T01:37:44.622Z,77.60
2018-01-30T01:40:12.227Z,78.10
2018-01-30T01:42:39.792Z,77.50
2018-01-30T01:45:07.378Z,77.70
2018-01-30T01:47:34.945Z,78.00
2018-01-30T01:50:02.535Z,78.10
2018-01-30T01:52:30.863Z,78.00
2018-01-30T01:54:58.455Z,78.00
2018-01-30T01:57:26.804Z,77.50
2018-01-30T01:59:54.393Z,77.50
2018-01-30T02:02:21.963Z,78.00
2018-01-30T02:04:50.323Z,77.90
2018-01-30T02:07:17.893Z,77.90
2018-01-30T02:09:46.245Z,78.00
2018-01-30T02:12:13.808Z,77.90
2018-01-30T02:14:41.395Z,77.70
2018-01-30T02:17:09.734Z,77.90
2018-01-30T02:19:37.326Z,77.90
2018-01-30T02:22:05.711Z,77.70
2018-01-30T02:24:34.083Z,77.70
2018-01-30T02:27:02.424Z,77.50
2018-01-30T02:29:29.994Z,77.40
2018-01-30T02:31:57.633Z,77.70
2018-01-30T02:34:25.201Z,78.00
2018-01-30T02:36:52.783Z,77.80
2018-01-30T02:39:20.344Z,77.80
2018-01-30T02:41:47.938Z,78.20
2018-01-30T02:44:15.514Z,79.00
2018-01-30T02:46:43.109Z,77.90
2018-01-30T02:49:10.682Z,78.00
2018-01-30T02:51:38.278Z,77.90
2018-01-30T02:54:05.842Z,77.80
2018-01-30T02:56:33.438Z,77.70
2018-01-30T02:59:01.012Z,77.30
2018-01-30T03:01:28.612Z,77.50
2018-01-30T03:03:56.190Z,77.40
2018-01-30T03:06:23.809Z,77.40
2018-01-30T03:08:52.147Z,77.30
2018-01-30T03:11:19.733Z,77.20
2018-01-30T03:13:47.300Z,77.40
2018-01-30T03:16:14.889Z,77.30
2018-01-30T03:18:42.456Z,77.60
2018-01-30T03:21:10.054Z,77.60
2018-01-30T03:23:37.626Z,77.90
2018-01-30T03:26:05.208Z,78.20
2018-01-30T03:28:33.537Z,77.70
2018-01-30T03:31:01.129Z,77.60
2018-01-30T03:33:28.703Z,77.70
2018-01-30T03:35:57.057Z,77.90
2018-01-30T03:38:24.624Z,77.90
2018-01-30T03:40:52.194Z,78.10
2018-01-30T03:43:20.589Z,78.40
2018-01-30T03:45:48.157Z,78.30
2018-01-30T03:48:15.745Z,78.60
2018-01-30T03:50:43.314Z,78.10
2018-01-30T03:53:10.906Z,78.20
2018-01-30T03:55:39.237Z,78.60
2018-01-30T03:58:06.827Z,78.50
2018-01-30T04:00:34.401Z,78.70
2018-01-30T04:03:02.755Z,78.60
2018-01-30T04:05:30.321Z,78.60
2018-01-30T04:07:57.915Z,78.40
2018-01-30T04:10:25.483Z,77.70
2018-01-30T04:12:53.062Z,78.40
2018-01-30T04:15:20.639Z,78.40
2018-01-30T04:17:48.360Z,78.40
2018-01-30T04:20:15.923Z,78.30
2018-01-30T04:22:43.522Z,78.20
2018-01-30T04:25:11.090Z,78.30
2018-01-30T04:27:38.669Z,78.70
2018-01-30T04:30:06.249Z,78.60
2018-01-30T04:32:33.833Z,78.80
2018-01-30T04:35:01.415Z,79.70
2018-01-30T04:37:29.011Z,78.90
2018-01-30T04:39:58.888Z,79.00
2018-01-30T04:42:26.551Z,79.60
2018-01-30T04:44:54.109Z,78.90
2018-01-30T04:47:21.698Z,79.10
2018-01-30T04:49:49.265Z,79.30
2018-01-30T04:52:17.621Z,79.30
2018-01-30T04:54:45.188Z,79.30
2018-01-30T04:57:13.566Z,78.70
2018-01-30T04:59:41.910Z,78.80
2018-01-30T05:02:09.823Z,78.70
2018-01-30T05:04:38.981Z,78.60
2018-01-30T05:07:06.551Z,78.40
2018-01-30T05:09:34.138Z,78.60
2018-01-30T05:12:01.709Z,78.60
2018-01-30T05:14:29.321Z,78.70
2018-01-30T05:16:56.887Z,79.20
2018-01-30T05:19:24.474Z,79.20
2018-01-30T05:21:52.048Z,79.10
2018-01-30T05:24:19.643Z,79.50
2018-01-30T05:26:47.226Z,79.60
2018-01-30T05:29:14.817Z,79.30
2018-01-30T05:31:43.161Z,79.10
2018-01-30T05:34:10.749Z,79.10
2018-01-30T05:36:38.318Z,79.10
2018-01-30T05:39:05.913Z,79.20
2018-01-30T05:41:33.485Z,79.80
2018-01-30T05:44:01.079Z,79.20
2018-01-30T05:46:29.454Z,79.60
2018-01-30T05:48:57.812Z,79.90
2018-01-30T05:51:25.372Z,79.90
2018-01-30T05:53:52.958Z,80.80
2018-01-30T05:56:21.290Z,80.50
2018-01-30T05:58:48.878Z,80.60
2018-01-30T06:01:17.214Z,80.70
2018-01-30T06:03:44.807Z,80.70
2018-01-30T06:06:12.374Z,79.80
2018-01-30T06:08:39.970Z,79.50
2018-01-30T06:11:07.539Z,79.80
2018-01-30T06:13:35.129Z,79.70
2018-01-30T06:16:02.697Z,80.00
2018-01-30T06:18:30.272Z,80.30
2018-01-30T06:20:57.870Z,80.60
2018-01-30T06:23:25.445Z,80.40
2018-01-30T06:25:53.042Z,80.60
2018-01-30T06:28:21.382Z,80.30
2018-01-30T06:30:48.970Z,80.30
2018-01-30T06:33:16.536Z,80.80
2018-01-30T06:35:44.162Z,79.80
2018-01-30T06:38:11.738Z,80.40
2018-01-30T06:40:39.334Z,80.10
2018-01-30T06:43:07.670Z,80.30
2018-01-30T06:45:35.315Z,80.30
2018-01-30T06:48:02.881Z,81.40
2018-01-30T06:50:30.460Z,81.40
2018-01-30T06:52:58.033Z,81.20
2018-01-30T06:55:25.618Z,80.80
2018-01-30T06:57:53.190Z,81.50
2018-01-30T07:00:20.825Z,81.40
2018-01-30T07:02:49.162Z,80.60
2018-01-30T07:05:16.749Z,80.50
2018-01-30T07:07:45.079Z,81.00
2018-01-30T07:10:12.689Z,81.00
2018-01-30T07:12:40.262Z,81.10
2018-01-30T07:15:07.860Z,81.00
2018-01-30T07:17:35.423Z,80.80
2018-01-30T07:20:03.027Z,80.90
2018-01-30T07:22:31.561Z,80.80
2018-01-30T07:24:59.162Z,80.60
2018-01-30T07:27:26.720Z,81.10
2018-01-30T07:29:54.282Z,81.20
2018-01-30T07:32:22.638Z,80.50
2018-01-30T07:34:50.219Z,80.50
2018-01-30T07:37:17.817Z,80.20
2018-01-30T07:39:45.398Z,81.20
2018-01-30T07:42:12.992Z,80.40
2018-01-30T07:44:40.567Z,81.00
2018-01-30T07:47:08.930Z,80.20
2018-01-30T07:49:37.272Z,80.30
2018-01-30T07:52:04.868Z,80.20
2018-01-30T07:54:32.438Z,81.50
2018-01-30T07:57:00.817Z,81.40
2018-01-30T07:59:28.428Z,81.40
2018-01-30T08:01:56.024Z,81.60
2018-01-30T08:04:23.591Z,81.80
2018-01-30T08:06:51.959Z,82.30
2018-01-30T08:09:20.290Z,81.40
2018-01-30T08:11:47.891Z,81.30
2018-01-30T08:14:15.471Z,80.20
2018-01-30T08:16:43.826Z,80.20
2018-01-30T08:19:13.013Z,80.00
2018-01-30T08:21:40.606Z,80.50
2018-01-30T08:24:08.938Z,80.50
2018-01-30T08:26:36.531Z,80.40
2018-01-30T08:29:04.877Z,80.80
2018-01-30T08:31:32.466Z,80.80
2018-01-30T08:34:00.843Z,80.60
2018-01-30T08:36:28.444Z,80.60
2018-01-30T08:38:56.018Z,80.20
2018-01-30T08:41:23.634Z,79.80
2018-01-30T08:43:51.202Z,80.10
2018-01-30T08:46:18.778Z,80.30
2018-01-30T08:48:46.375Z,80.60
2018-01-30T08:51:13.970Z,80.30
2018-01-30T08:53:41.569Z,80.50
2018-01-30T08:56:09.142Z,81.70
2018-01-30T08:58:36.738Z,81.60
2018-01-30T09:01:04.318Z,81.40
2018-01-30T09:03:31.958Z,80.70
2018-01-30T09:05:59.538Z,80.20
2018-01-30T09:08:27.128Z,80.10
2018-01-30T09:10:54.698Z,79.60
2018-01-30T09:13:22.298Z,80.00
2018-01-30T09:15:49.894Z,80.20
2018-01-30T09:18:17.518Z,80.60
2018-01-30T09:20:45.859Z,80.30
2018-01-30T09:23:13.457Z,80.30
2018-01-30T09:25:41.788Z,79.70
2018-01-30T09:28:09.379Z,79.70
2018-01-30T09:30:37.749Z,79.20
2018-01-30T09:33:05.337Z,79.20
2018-01-30T09:35:32.919Z,78.60
2018-01-30T09:38:00.534Z,78.10
2018-01-30T09:40:28.874Z,77.20
2018-01-30T09:42:56.501Z,77.10
2018-01-30T09:45:24.060Z,77.00
2018-01-30T09:47:51.650Z,77.10
2018-01-30T09:50:19.226Z,77.40
2018-01-30T09:52:46.820Z,77.50
2018-01-30T09:55:14.385Z,77.60
2018-01-30T09:57:42.753Z,77.00
2018-01-30T10:00:11.103Z,76.80
2018-01-30T10:02:38.684Z,76.80
2018-01-30T10:05:07.036Z,76.30
2018-01-30T10:07:34.611Z,76.30
2018-01-30T10:10:02.206Z,76.10
2018-01-30T10:12:30.902Z,76.20
2018-01-30T10:14:58.503Z,75.90
2018-01-30T10:17:26.081Z,76.10
2018-01-30T10:19:53.676Z,76.10
2018-01-30T10:22:21.246Z,76.60
2018-01-30T10:24:49.803Z,76.60
2018-01-30T10:27:17.409Z,76.30
2018-01-30T10:29:45.011Z,76.60
2018-01-30T10:32:13.358Z,75.90
2018-01-30T10:34:40.961Z,75.90
2018-01-30T10:37:08.541Z,76.10
2018-01-30T10:39:36.142Z,76.00
2018-01-30T10:42:03.758Z,75.80
2018-01-30T10:44:31.356Z,76.30
2018-01-30T10:46:58.962Z,76.20
2018-01-30T10:49:26.561Z,75.60
2018-01-30T10:51:54.136Z,75.90
2018-01-30T10:54:21.734Z,75.90
2018-01-30T10:56:49.324Z,75.50
2018-01-30T10:59:16.913Z,75.70
2018-01-30T11:01:44.537Z,75.30
2018-01-30T11:04:12.120Z,75.00
2018-01-30T11:06:39.694Z,74.90
2018-01-30T11:09:07.286Z,74.60
2018-01-30T11:11:35.623Z,74.80
2018-01-30T11:14:03.189Z,74.80
2018-01-30T11:16:30.786Z,74.80
2018-01-30T11:18:58.374Z,74.50
2018-01-30T11:21:25.978Z,74.40
2018-01-30T11:23:53.552Z,74.20
2018-01-30T11:26:21.924Z,73.70
2018-01-30T11:28:49.497Z,73.70
2018-01-30T11:31:17.858Z,73.80
2018-01-30T11:33:46.207Z,73.60
2018-01-30T11:36:13.805Z,73.60
2018-01-30T11:38:41.384Z,73.60
2018-01-30T11:41:09.011Z,74.20
2018-01-30T11:43:36.577Z,74.80
2018-01-30T11:46:04.938Z,75.30
2018-01-30T11:48:32.528Z,75.30
2018-01-30T11:51:00.146Z,75.50
2018-01-30T11:53:27.736Z,75.60
2018-01-30T11:55:56.093Z,75.50
2018-01-30T11:58:23.687Z,75.50
2018-01-30T12:00:51.325Z,76.00
2018-01-30T12:03:19.662Z,76.60
2018-01-30T12:05:47.257Z,76.40
2018-01-30T12:08:14.829Z,76.20
2018-01-30T12:10:43.185Z,76.50
2018-01-30T12:13:10.757Z,76.40
2018-01-30T12:15:39.125Z,75.80
2018-01-30T12:18:06.713Z,75.80
2018-01-30T12:20:34.305Z,75.50
2018-01-30T12:23:01.876Z,75.10
2018-01-30T12:25:29.477Z,75.20
2018-01-30T12:27:57.817Z,75.00
2018-01-30T12:30:25.438Z,75.00
2018-01-30T12:32:53.039Z,74.00
2018-01-30T12:35:20.623Z,75.20
2018-01-30T12:37:48.256Z,74.80
2018-01-30T12:40:16.601Z,74.70
2018-01-30T12:42:44.200Z,74.70
2018-01-30T12:45:11.792Z,74.60
2018-01-30T12:47:39.397Z,75.10
2018-01-30T12:50:07.019Z,74.90
2018-01-30T12:52:35.381Z,74.60
2018-01-30T12:55:03.775Z,74.30
2018-01-30T12:57:31.429Z,74.20
2018-01-30T12:59:59.775Z,73.40
2018-01-30T13:02:27.369Z,73.40
2018-01-30T13:04:54.958Z,72.90
2018-01-30T13:07:22.550Z,72.80
2018-01-30T13:09:50.117Z,73.70
2018-01-30T13:12:17.713Z,73.10
2018-01-30T13:14:46.054Z,72.40
2018-01-30T13:17:13.659Z,72.20
2018-01-30T13:19:41.235Z,72.40
2018-01-30T13:22:08.831Z,73.10
2018-01-30T13:24:36.398Z,72.60
2018-01-30T13:27:03.994Z,72.70
2018-01-30T13:29:31.589Z,72.30
2018-01-30T13:31:59.182Z,72.80
2018-01-30T13:34:26.800Z,73.30
2018-01-30T13:36:54.373Z,72.90
2018-01-30T13:39:21.954Z,73.00
2018-01-30T13:41:49.595Z,73.20
2018-01-30T13:44:17.170Z,73.00
2018-01-30T13:46:44.747Z,73.00
2018-01-30T13:49:13.114Z,72.20
2018-01-30T13:51:40.691Z,72.10
2018-01-30T13:54:09.046Z,71.60
2018-01-30T13:56:36.618Z,71.50
2018-01-30T13:59:04.210Z,72.10
2018-01-30T14:01:31.781Z,72.50
2018-01-30T14:03:59.380Z,72.50
2018-01-30T14:06:26.950Z,72.30
2018-01-30T14:08:55.314Z,72.00
2018-01-30T14:11:22.888Z,72.00
2018-01-30T14:13:51.257Z,72.40
2018-01-30T14:16:18.826Z,72.40
2018-01-30T14:18:46.429Z,72.40
2018-01-30T14:21:14.006Z,72.50
2018-01-30T14:23:41.606Z,72.70
2018-01-30T14:26:09.953Z,72.10
2018-01-30T14:28:37.558Z,72.00
2018-01-30T14:31:05.124Z,72.00
2018-01-30T14:33:32.744Z,72.40
2018-01-30T14:36:00.318Z,72.70
2018-01-30T14:38:27.921Z,72.40
2018-01-30T14:40:55.496Z,72.50
2018-01-30T14:43:23.088Z,72.40
2018-01-30T14:45:50.667Z,72.60
2018-01-30T14:48:18.258Z,72.50
2018-01-30T14:50:45.827Z,73.10
2018-01-30T14:53:13.417Z,73.50
2018-01-30T14:55:41.024Z,72.80
2018-01-30T14:58:08.613Z,72.40
2018-01-30T15:00:36.199Z,73.20
2018-01-30T15:03:03.824Z,73.60
2018-01-30T15:05:31.427Z,73.70
2018-01-30T15:07:59.770Z,73.90
2018-01-30T15:10:27.365Z,73.90
2018-01-30T15:12:54.941Z,73.10
2018-01-30T15:15:23.342Z,72.90
2018-01-30T15:17:50.918Z,72.90
2018-01-30T15:20:18.514Z,73.40
2018-01-30T15:22:46.089Z,72.50
2018-01-30T15:25:14.446Z,72.50
2018-01-30T15:27:42.015Z,72.50
2018-01-30T15:30:09.605Z,72.30
2018-01-30T15:32:37.187Z,72.70
2018-01-30T15:35:04.861Z,73.70
2018-01-30T15:37:32.429Z,74.00
2018-01-30T15:40:00.142Z,74.70
2018-01-30T15:42:28.100Z,75.30
2018-01-30T15:44:55.749Z,74.80
2018-01-30T15:47:24.092Z,74.40
2018-01-30T15:49:51.698Z,74.40
2018-01-30T15:52:20.033Z,75.10
2018-01-30T15:54:48.857Z,75.10
2018-01-30T15:57:17.517Z,75.40
2018-01-30T15:59:45.145Z,75.30
2018-01-30T16:02:12.765Z,75.40
2018-01-30T16:04:41.160Z,75.90
2018-01-30T16:07:08.738Z,75.90
2018-01-30T16:09:36.330Z,76.20
2018-01-30T16:12:03.927Z,76.20
2018-01-30T16:14:31.503Z,77.50
2018-01-30T16:16:59.088Z,76.30
2018-01-30T16:19:26.686Z,76.00
2018-01-30T16:21:54.278Z,77.40
2018-01-30T16:24:21.848Z,77.50
2018-01-30T16:26:49.445Z,77.50
2018-01-30T16:29:17.072Z,77.70
2018-01-30T16:31:44.662Z,78.40
2018-01-30T16:34:12.230Z,78.20
2018-01-30T16:36:39.824Z,77.80
2018-01-30T16:39:08.153Z,78.80
2018-01-30T16:41:35.762Z,78.80
2018-01-30T16:44:03.334Z,78.40
2018-01-30T16:46:30.925Z,78.60
2018-01-30T16:48:58.482Z,78.60
2018-01-30T16:51:26.088Z,78.50
2018-01-30T16:53:54.421Z,79.10
2018-01-30T16:56:22.010Z,79.10
2018-01-30T16:58:49.578Z,78.90
2018-01-30T17:01:17.184Z,78.50
2018-01-30T17:03:44.745Z,78.40
2018-01-30T17:06:12.335Z,78.70
2018-01-30T17:08:39.960Z,78.60
2018-01-30T17:11:07.557Z,79.10
2018-01-30T17:13:35.162Z,79.60
2018-01-30T17:16:02.754Z,79.40
2018-01-30T17:18:31.119Z,78.50
2018-01-30T17:20:58.716Z,78.40
2018-01-30T17:23:26.302Z,78.30
2018-01-30T17:25:54.647Z,78.40
2018-01-30T17:28:22.256Z,78.40
2018-01-30T17:30:49.822Z,78.60
2018-01-30T17:33:17.419Z,78.70
2018-01-30T17:35:44.990Z,78.70
2018-01-30T17:38:12.581Z,78.60
2018-01-30T17:40:40.147Z,79.40
2018-01-30T17:43:07.742Z,78.70
2018-01-30T17:45:35.354Z,79.20
2018-01-30T17:48:04.706Z,79.10
2018-01-30T17:50:32.278Z,79.00
2018-01-30T17:52:59.865Z,78.60
2018-01-30T17:55:28.211Z,78.80
2018-01-30T17:57:55.805Z,78.80
2018-01-30T18:00:24.144Z,80.00
2018-01-30T18:02:51.743Z,80.00
2018-01-30T18:05:20.079Z,79.10
2018-01-30T18:07:47.670Z,79.20
2018-01-30T18:10:15.242Z,79.60
2018-01-30T18:12:43.598Z,79.60
2018-01-30T18:15:11.174Z,79.60
2018-01-30T18:17:38.772Z,79.30
2018-01-30T18:20:06.340Z,80.00
2018-01-30T18:22:33.941Z,79.70
2018-01-30T18:25:01.554Z,79.70
2018-01-30T18:27:29.151Z,79.40
2018-01-30T18:29:56.721Z,79.80
2018-01-30T18:32:25.073Z,80.30
2018-01-30T18:34:52.658Z,80.30
2018-01-30T18:37:21.035Z,79.40
2018-01-30T18:39:48.660Z,79.40
2018-01-30T18:42:16.270Z,78.80
2018-01-30T18:44:43.895Z,79.00
2018-01-30T18:47:11.466Z,78.70
2018-01-30T18:49:39.075Z,79.40
2018-01-30T18:52:06.640Z,79.50
2018-01-30T18:54:34.289Z,79.90
2018-01-30T18:57:01.848Z,79.60
2018-01-30T18:59:29.620Z,79.90
2018-01-30T19:01:57.703Z,79.70
2018-01-30T19:04:26.354Z,79.70
2018-01-30T19:06:55.970Z,80.30
2018-01-30T19:09:23.672Z,80.10
2018-01-30T19:11:51.237Z,79.50
2018-01-30T19:14:18.825Z,80.70
2018-01-30T19:16:46.401Z,80.10
2018-01-30T19:19:19.288Z,79.40
2018-01-30T19:21:49.212Z,80.30
2018-01-30T19:24:23.596Z,79.40
2018-01-30T19:26:51.542Z,79.40
2018-01-30T19:29:19.235Z,79.30
2018-01-30T19:31:47.568Z,79.50
2018-01-30T19:34:15.166Z,79.50
2018-01-30T19:36:43.500Z,80.00
2018-01-30T19:39:11.101Z,79.80
2018-01-30T19:41:38.730Z,79.80
2018-01-30T19:44:06.390Z,79.70
2018-01-30T19:46:34.839Z,79.80
2018-01-30T19:49:02.433Z,80.50
2018-01-30T19:51:30.054Z,79.20
2018-01-30T19:53:57.691Z,79.00
2018-01-30T19:56:25.321Z,79.00
2018-01-30T19:58:52.959Z,78.70
2018-01-30T20:01:20.589Z,78.70
2018-01-30T20:03:48.237Z,78.40
2018-01-30T20:06:15.864Z,78.50
2018-01-30T20:08:43.499Z,79.40
2018-01-30T20:11:11.094Z,79.50
2018-01-30T20:13:38.714Z,79.30
2018-01-30T20:16:06.321Z,79.40
2018-01-30T20:18:34.705Z,79.00
2018-01-30T20:21:02.335Z,79.00
2018-01-30T20:23:29.967Z,79.20
2018-01-30T20:25:57.612Z,79.00
2018-01-30T20:28:25.234Z,78.60
2018-01-30T20:30:52.826Z,78.80
2018-01-30T20:33:20.451Z,79.10
2018-01-30T20:35:48.046Z,79.30
2018-01-30T20:38:15.615Z,79.40
2018-01-30T20:40:43.199Z,79.30
2018-01-30T20:43:10.766Z,79.70
2018-01-30T20:45:38.407Z,80.20
2018-01-30T20:48:05.971Z,80.00
2018-01-30T20:50:33.558Z,80.00
2018-01-30T20:53:01.183Z,80.40
2018-01-30T20:55:28.819Z,80.30
2018-01-30T20:57:56.390Z,79.80
2018-01-30T21:00:24.038Z,79.00
2018-01-30T21:02:51.655Z,79.00
2018-01-30T21:05:19.288Z,78.70
2018-01-30T21:07:46.878Z,79.10
2018-01-30T21:10:14.504Z,79.30
2018-01-30T21:12:42.122Z,79.30
2018-01-30T21:15:09.729Z,79.10
2018-01-30T21:17:37.298Z,78.90
2018-01-30T21:20:04.892Z,78.50
2018-01-30T21:22:32.513Z,78.80
2018-01-30T21:25:00.116Z,78.70
2018-01-30T21:27:28.501Z,78.20
2018-01-30T21:29:56.889Z,78.70
2018-01-30T21:32:24.485Z,78.70
2018-01-30T21:34:52.044Z,78.90
2018-01-30T21:37:19.645Z,79.20
2018-01-30T21:39:47.977Z,78.40
2018-01-30T21:42:15.578Z,78.20
2018-01-30T21:44:43.155Z,77.90
2018-01-30T21:47:10.798Z,78.50
2018-01-30T21:49:38.368Z,79.00
2018-01-30T21:52:06.771Z,78.80
2018-01-30T21:54:34.394Z,78.60
2018-01-30T21:57:02.761Z,78.90
2018-01-30T21:59:30.481Z,78.90
2018-01-30T22:01:58.065Z,79.00
2018-01-30T22:04:25.690Z,79.00
2018-01-30T22:06:53.324Z,79.00
2018-01-30T22:09:20.890Z,78.90
2018-01-30T22:11:49.287Z,79.20
2018-01-30T22:14:16.845Z,79.20
2018-01-30T22:16:44.471Z,79.00
2018-01-30T22:19:12.813Z,78.90
2018-01-30T22:21:40.411Z,78.80
2018-01-30T22:24:08.024Z,78.60
2018-01-30T22:26:35.669Z,78.60
2018-01-30T22:29:03.295Z,78.50
2018-01-30T22:31:31.699Z,78.00
2018-01-30T22:33:59.274Z,77.90
2018-01-30T22:36:26.866Z,78.00
2018-01-30T22:38:54.445Z,77.70
2018-01-30T22:41:22.043Z,76.70
2018-01-30T22:43:49.638Z,77.50
2018-01-30T22:46:17.204Z,77.70
